sensor_id;sensor_type;location;lat;lon;timestamp;P1;durP1;ratioP1;P2;durP2;ratioP2
15132;SDS011;7667;51.232;17.110;2023-10-08T00:01:19;1.90;;;1.10;;
15132;SDS011;7667;51.232;17.110;2023-10-08T00:03:48;3.37;;;1.07;;
15132;SDS011;7667;51.232;17.110;2023-10-08T00:06:20;1.40;;;1.10;;
15132;SDS011;7667;51.232;17.110;2023-10-08T00:08:48;1.20;;;0.90;;
15132;SDS011;7667;51.232;17.110;2023-10-08T00:11:17;0.80;;;0.80;;
15132;SDS011;7667;51.232;17.110;2023-10-08T00:13:45;1.53;;;0.90;;
15132;SDS011;7667;51.232;17.110;2023-10-08T00:16:15;1.50;;;0.90;;
15132;SDS011;7667;51.232;17.110;2023-10-08T00:18:45;0.90;;;0.80;;
15132;SDS011;7667;51.232;17.110;2023-10-08T00:21:21;1.77;;;1.00;;
15132;SDS011;7667;51.232;17.110;2023-10-08T00:23:54;1.00;;;0.90;;
15132;SDS011;7667;51.232;17.110;2023-10-08T00:26:29;1.77;;;0.80;;
15132;SDS011;7667;51.232;17.110;2023-10-08T00:31:33;1.87;;;1.10;;
15132;SDS011;7667;51.232;17.110;2023-10-08T00:34:04;2.10;;;0.97;;
15132;SDS011;7667;51.232;17.110;2023-10-08T00:36:32;2.30;;;1.13;;
15132;SDS011;7667;51.232;17.110;2023-10-08T00:39:03;1.43;;;1.00;;
15132;SDS011;7667;51.232;17.110;2023-10-08T00:41:53;1.30;;;1.00;;
15132;SDS011;7667;51.232;17.110;2023-10-08T00:44:31;2.23;;;1.10;;
15132;SDS011;7667;51.232;17.110;2023-10-08T00:47:02;1.30;;;1.00;;
15132;SDS011;7667;51.232;17.110;2023-10-08T00:49:32;1.50;;;1.13;;
15132;SDS011;7667;51.232;17.110;2023-10-08T00:52:09;1.70;;;1.00;;
15132;SDS011;7667;51.232;17.110;2023-10-08T00:54:39;1.20;;;1.10;;
15132;SDS011;7667;51.232;17.110;2023-10-08T00:57:27;2.13;;;1.03;;
15132;SDS011;7667;51.232;17.110;2023-10-08T00:59:57;1.10;;;1.00;;
15132;SDS011;7667;51.232;17.110;2023-10-08T01:02:27;0.80;;;0.80;;
15132;SDS011;7667;51.232;17.110;2023-10-08T01:05:08;0.80;;;0.80;;
15132;SDS011;7667;51.232;17.110;2023-10-08T01:07:38;0.70;;;0.70;;
15132;SDS011;7667;51.232;17.110;2023-10-08T01:10:11;2.13;;;1.10;;
15132;SDS011;7667;51.232;17.110;2023-10-08T01:12:40;1.20;;;1.00;;
15132;SDS011;7667;51.232;17.110;2023-10-08T01:15:27;1.73;;;1.20;;
15132;SDS011;7667;51.232;17.110;2023-10-08T01:18:03;3.10;;;1.27;;
15132;SDS011;7667;51.232;17.110;2023-10-08T01:20:41;2.23;;;1.20;;
15132;SDS011;7667;51.232;17.110;2023-10-08T01:23:15;1.93;;;1.10;;
15132;SDS011;7667;51.232;17.110;2023-10-08T01:25:53;3.97;;;2.00;;
15132;SDS011;7667;51.232;17.110;2023-10-08T01:28:50;2.60;;;1.20;;
15132;SDS011;7667;51.232;17.110;2023-10-08T01:31:19;1.47;;;1.20;;
15132;SDS011;7667;51.232;17.110;2023-10-08T01:33:47;1.10;;;0.90;;
15132;SDS011;7667;51.232;17.110;2023-10-08T01:36:17;2.83;;;1.10;;
15132;SDS011;7667;51.232;17.110;2023-10-08T01:38:44;2.80;;;1.03;;
15132;SDS011;7667;51.232;17.110;2023-10-08T01:41:16;2.23;;;1.27;;
15132;SDS011;7667;51.232;17.110;2023-10-08T01:43:49;3.03;;;1.43;;
15132;SDS011;7667;51.232;17.110;2023-10-08T01:46:18;1.87;;;0.93;;
15132;SDS011;7667;51.232;17.110;2023-10-08T01:48:49;2.23;;;1.30;;
15132;SDS011;7667;51.232;17.110;2023-10-08T01:51:20;3.70;;;1.27;;
15132;SDS011;7667;51.232;17.110;2023-10-08T01:54:03;3.03;;;1.20;;
15132;SDS011;7667;51.232;17.110;2023-10-08T01:56:38;1.30;;;1.00;;
15132;SDS011;7667;51.232;17.110;2023-10-08T01:59:12;2.67;;;1.20;;
15132;SDS011;7667;51.232;17.110;2023-10-08T02:01:43;3.10;;;1.00;;
15132;SDS011;7667;51.232;17.110;2023-10-08T02:04:12;2.60;;;1.30;;
15132;SDS011;7667;51.232;17.110;2023-10-08T02:06:43;3.80;;;1.43;;
15132;SDS011;7667;51.232;17.110;2023-10-08T02:09:12;3.13;;;1.40;;
15132;SDS011;7667;51.232;17.110;2023-10-08T02:11:46;1.97;;;1.50;;
15132;SDS011;7667;51.232;17.110;2023-10-08T02:14:17;3.07;;;1.53;;
15132;SDS011;7667;51.232;17.110;2023-10-08T02:16:47;2.80;;;1.60;;
15132;SDS011;7667;51.232;17.110;2023-10-08T02:19:15;2.30;;;1.73;;
15132;SDS011;7667;51.232;17.110;2023-10-08T02:21:45;3.90;;;1.50;;
15132;SDS011;7667;51.232;17.110;2023-10-08T02:24:13;3.97;;;1.50;;
15132;SDS011;7667;51.232;17.110;2023-10-08T02:26:41;2.80;;;1.30;;
15132;SDS011;7667;51.232;17.110;2023-10-08T02:29:09;4.33;;;1.30;;
15132;SDS011;7667;51.232;17.110;2023-10-08T02:31:40;5.47;;;2.00;;
15132;SDS011;7667;51.232;17.110;2023-10-08T02:34:08;3.13;;;1.40;;
15132;SDS011;7667;51.232;17.110;2023-10-08T02:36:42;2.80;;;1.67;;
15132;SDS011;7667;51.232;17.110;2023-10-08T02:39:10;3.07;;;1.23;;
15132;SDS011;7667;51.232;17.110;2023-10-08T02:41:41;2.47;;;1.50;;
15132;SDS011;7667;51.232;17.110;2023-10-08T02:44:09;2.47;;;1.27;;
15132;SDS011;7667;51.232;17.110;2023-10-08T02:46:41;2.77;;;1.00;;
15132;SDS011;7667;51.232;17.110;2023-10-08T02:49:11;2.40;;;0.97;;
15132;SDS011;7667;51.232;17.110;2023-10-08T02:51:40;1.57;;;0.90;;
15132;SDS011;7667;51.232;17.110;2023-10-08T02:54:11;2.70;;;1.13;;
15132;SDS011;7667;51.232;17.110;2023-10-08T02:56:46;2.03;;;1.03;;
15132;SDS011;7667;51.232;17.110;2023-10-08T02:59:18;2.07;;;1.20;;
15132;SDS011;7667;51.232;17.110;2023-10-08T03:01:50;1.50;;;0.97;;
15132;SDS011;7667;51.232;17.110;2023-10-08T03:04:23;1.83;;;1.10;;
15132;SDS011;7667;51.232;17.110;2023-10-08T03:06:51;1.93;;;1.27;;
15132;SDS011;7667;51.232;17.110;2023-10-08T03:09:22;2.93;;;1.70;;
15132;SDS011;7667;51.232;17.110;2023-10-08T03:11:52;3.27;;;1.70;;
15132;SDS011;7667;51.232;17.110;2023-10-08T03:14:20;2.27;;;1.70;;
15132;SDS011;7667;51.232;17.110;2023-10-08T03:16:54;2.90;;;1.67;;
15132;SDS011;7667;51.232;17.110;2023-10-08T03:19:34;3.07;;;1.40;;
15132;SDS011;7667;51.232;17.110;2023-10-08T03:22:03;2.57;;;1.63;;
15132;SDS011;7667;51.232;17.110;2023-10-08T03:24:31;3.53;;;1.30;;
15132;SDS011;7667;51.232;17.110;2023-10-08T03:27:02;3.30;;;1.53;;
15132;SDS011;7667;51.232;17.110;2023-10-08T03:29:34;3.93;;;1.47;;
15132;SDS011;7667;51.232;17.110;2023-10-08T03:32:09;3.60;;;1.27;;
15132;SDS011;7667;51.232;17.110;2023-10-08T03:34:45;2.13;;;1.20;;
15132;SDS011;7667;51.232;17.110;2023-10-08T03:37:15;2.70;;;1.40;;
15132;SDS011;7667;51.232;17.110;2023-10-08T03:39:48;3.17;;;1.53;;
15132;SDS011;7667;51.232;17.110;2023-10-08T03:42:35;2.50;;;1.27;;
15132;SDS011;7667;51.232;17.110;2023-10-08T03:45:07;4.53;;;1.43;;
15132;SDS011;7667;51.232;17.110;2023-10-08T03:47:39;3.70;;;1.20;;
15132;SDS011;7667;51.232;17.110;2023-10-08T03:50:13;3.53;;;1.30;;
15132;SDS011;7667;51.232;17.110;2023-10-08T03:52:44;2.70;;;1.33;;
15132;SDS011;7667;51.232;17.110;2023-10-08T03:55:13;2.37;;;1.30;;
15132;SDS011;7667;51.232;17.110;2023-10-08T03:57:48;2.77;;;1.40;;
15132;SDS011;7667;51.232;17.110;2023-10-08T04:00:24;2.77;;;1.30;;
15132;SDS011;7667;51.232;17.110;2023-10-08T04:03:08;2.87;;;1.40;;
15132;SDS011;7667;51.232;17.110;2023-10-08T04:05:38;6.87;;;4.33;;
15132;SDS011;7667;51.232;17.110;2023-10-08T04:08:29;2.87;;;1.60;;
15132;SDS011;7667;51.232;17.110;2023-10-08T04:11:23;2.63;;;1.37;;
15132;SDS011;7667;51.232;17.110;2023-10-08T04:13:57;2.87;;;1.37;;
15132;SDS011;7667;51.232;17.110;2023-10-08T04:16:29;3.07;;;1.30;;
15132;SDS011;7667;51.232;17.110;2023-10-08T04:19:03;4.30;;;1.60;;
15132;SDS011;7667;51.232;17.110;2023-10-08T04:21:32;3.67;;;1.40;;
15132;SDS011;7667;51.232;17.110;2023-10-08T04:24:01;3.33;;;1.37;;
15132;SDS011;7667;51.232;17.110;2023-10-08T04:26:32;3.00;;;1.40;;
15132;SDS011;7667;51.232;17.110;2023-10-08T04:29:01;3.53;;;1.50;;
15132;SDS011;7667;51.232;17.110;2023-10-08T04:31:29;3.30;;;1.27;;
15132;SDS011;7667;51.232;17.110;2023-10-08T04:34:10;2.03;;;1.30;;
15132;SDS011;7667;51.232;17.110;2023-10-08T04:36:44;3.87;;;1.30;;
15132;SDS011;7667;51.232;17.110;2023-10-08T04:39:15;3.27;;;1.40;;
15132;SDS011;7667;51.232;17.110;2023-10-08T04:41:48;2.70;;;1.30;;
15132;SDS011;7667;51.232;17.110;2023-10-08T04:44:21;2.87;;;1.40;;
15132;SDS011;7667;51.232;17.110;2023-10-08T04:46:48;2.90;;;1.80;;
15132;SDS011;7667;51.232;17.110;2023-10-08T04:49:19;2.97;;;1.70;;
15132;SDS011;7667;51.232;17.110;2023-10-08T04:52:00;2.40;;;1.50;;
15132;SDS011;7667;51.232;17.110;2023-10-08T04:54:35;2.87;;;1.70;;
15132;SDS011;7667;51.232;17.110;2023-10-08T04:57:07;4.10;;;2.10;;
15132;SDS011;7667;51.232;17.110;2023-10-08T04:59:42;5.10;;;2.93;;
15132;SDS011;7667;51.232;17.110;2023-10-08T05:02:10;6.63;;;3.10;;
15132;SDS011;7667;51.232;17.110;2023-10-08T05:04:40;5.03;;;3.17;;
15132;SDS011;7667;51.232;17.110;2023-10-08T05:07:43;5.50;;;3.60;;
15132;SDS011;7667;51.232;17.110;2023-10-08T05:10:11;6.57;;;3.67;;
15132;SDS011;7667;51.232;17.110;2023-10-08T05:12:53;7.10;;;3.70;;
15132;SDS011;7667;51.232;17.110;2023-10-08T05:15:30;5.73;;;3.40;;
15132;SDS011;7667;51.232;17.110;2023-10-08T05:18:04;5.90;;;3.90;;
15132;SDS011;7667;51.232;17.110;2023-10-08T05:20:50;4.80;;;3.73;;
15132;SDS011;7667;51.232;17.110;2023-10-08T05:23:18;7.90;;;3.80;;
15132;SDS011;7667;51.232;17.110;2023-10-08T05:25:56;8.37;;;3.90;;
15132;SDS011;7667;51.232;17.110;2023-10-08T05:28:25;7.17;;;4.00;;
15132;SDS011;7667;51.232;17.110;2023-10-08T05:30:53;6.73;;;4.00;;
15132;SDS011;7667;51.232;17.110;2023-10-08T05:33:39;6.70;;;4.23;;
15132;SDS011;7667;51.232;17.110;2023-10-08T05:36:26;7.97;;;4.77;;
15132;SDS011;7667;51.232;17.110;2023-10-08T05:39:12;7.20;;;5.10;;
15132;SDS011;7667;51.232;17.110;2023-10-08T05:41:51;6.33;;;5.30;;
15132;SDS011;7667;51.232;17.110;2023-10-08T05:44:22;7.40;;;5.30;;
15132;SDS011;7667;51.232;17.110;2023-10-08T05:46:50;7.70;;;5.77;;
15132;SDS011;7667;51.232;17.110;2023-10-08T05:49:21;9.20;;;5.50;;
15132;SDS011;7667;51.232;17.110;2023-10-08T05:51:58;6.57;;;5.60;;
15132;SDS011;7667;51.232;17.110;2023-10-08T05:54:30;6.40;;;5.80;;
15132;SDS011;7667;51.232;17.110;2023-10-08T05:57:04;7.87;;;5.50;;
15132;SDS011;7667;51.232;17.110;2023-10-08T05:59:39;7.43;;;5.70;;
15132;SDS011;7667;51.232;17.110;2023-10-08T06:02:22;8.60;;;5.87;;
15132;SDS011;7667;51.232;17.110;2023-10-08T06:10:27;7.83;;;6.27;;
15132;SDS011;7667;51.232;17.110;2023-10-08T06:13:00;7.00;;;5.10;;
15132;SDS011;7667;51.232;17.110;2023-10-08T06:15:37;9.60;;;5.63;;
15132;SDS011;7667;51.232;17.110;2023-10-08T06:18:18;7.00;;;5.10;;
15132;SDS011;7667;51.232;17.110;2023-10-08T06:20:53;6.30;;;4.60;;
15132;SDS011;7667;51.232;17.110;2023-10-08T06:23:34;7.57;;;5.10;;
15132;SDS011;7667;51.232;17.110;2023-10-08T06:26:06;8.87;;;5.10;;
15132;SDS011;7667;51.232;17.110;2023-10-08T06:28:37;9.43;;;4.83;;
15132;SDS011;7667;51.232;17.110;2023-10-08T06:31:06;6.83;;;5.47;;
15132;SDS011;7667;51.232;17.110;2023-10-08T06:33:39;8.50;;;4.67;;
15132;SDS011;7667;51.232;17.110;2023-10-08T06:36:09;7.07;;;5.10;;
15132;SDS011;7667;51.232;17.110;2023-10-08T06:38:46;7.13;;;4.60;;
15132;SDS011;7667;51.232;17.110;2023-10-08T06:41:16;7.67;;;4.23;;
15132;SDS011;7667;51.232;17.110;2023-10-08T06:44:11;6.93;;;4.80;;
15132;SDS011;7667;51.232;17.110;2023-10-08T06:46:42;6.60;;;4.13;;
15132;SDS011;7667;51.232;17.110;2023-10-08T06:49:10;5.03;;;3.97;;
15132;SDS011;7667;51.232;17.110;2023-10-08T06:51:41;6.23;;;3.70;;
15132;SDS011;7667;51.232;17.110;2023-10-08T06:54:10;5.53;;;3.20;;
15132;SDS011;7667;51.232;17.110;2023-10-08T06:56:41;4.83;;;3.50;;
15132;SDS011;7667;51.232;17.110;2023-10-08T06:59:19;6.97;;;4.23;;
15132;SDS011;7667;51.232;17.110;2023-10-08T07:01:51;8.07;;;4.40;;
15132;SDS011;7667;51.232;17.110;2023-10-08T07:04:19;6.70;;;4.07;;
15132;SDS011;7667;51.232;17.110;2023-10-08T07:06:49;3.93;;;3.50;;
15132;SDS011;7667;51.232;17.110;2023-10-08T07:09:18;4.93;;;3.70;;
15132;SDS011;7667;51.232;17.110;2023-10-08T07:11:55;4.73;;;3.00;;
15132;SDS011;7667;51.232;17.110;2023-10-08T07:14:24;3.67;;;2.43;;
15132;SDS011;7667;51.232;17.110;2023-10-08T07:16:56;5.13;;;2.57;;
15132;SDS011;7667;51.232;17.110;2023-10-08T07:19:27;6.50;;;2.10;;
15132;SDS011;7667;51.232;17.110;2023-10-08T07:22:05;3.23;;;2.00;;
15132;SDS011;7667;51.232;17.110;2023-10-08T07:24:49;3.30;;;2.17;;
15132;SDS011;7667;51.232;17.110;2023-10-08T07:27:18;3.63;;;2.00;;
15132;SDS011;7667;51.232;17.110;2023-10-08T07:29:57;4.93;;;2.30;;
15132;SDS011;7667;51.232;17.110;2023-10-08T07:32:29;2.40;;;1.70;;
15132;SDS011;7667;51.232;17.110;2023-10-08T07:34:57;3.13;;;1.87;;
15132;SDS011;7667;51.232;17.110;2023-10-08T07:37:43;3.03;;;1.80;;
15132;SDS011;7667;51.232;17.110;2023-10-08T07:40:12;5.20;;;2.33;;
15132;SDS011;7667;51.232;17.110;2023-10-08T07:42:41;3.30;;;1.80;;
15132;SDS011;7667;51.232;17.110;2023-10-08T07:45:10;3.80;;;1.80;;
15132;SDS011;7667;51.232;17.110;2023-10-08T07:47:44;2.47;;;1.70;;
15132;SDS011;7667;51.232;17.110;2023-10-08T07:50:12;4.07;;;2.30;;
15132;SDS011;7667;51.232;17.110;2023-10-08T07:52:42;2.70;;;1.30;;
15132;SDS011;7667;51.232;17.110;2023-10-08T07:55:11;2.53;;;1.70;;
15132;SDS011;7667;51.232;17.110;2023-10-08T07:57:45;1.67;;;1.10;;
15132;SDS011;7667;51.232;17.110;2023-10-08T08:00:13;4.47;;;1.87;;
15132;SDS011;7667;51.232;17.110;2023-10-08T08:02:45;3.10;;;1.10;;
15132;SDS011;7667;51.232;17.110;2023-10-08T08:05:13;3.40;;;1.23;;
15132;SDS011;7667;51.232;17.110;2023-10-08T08:07:44;2.70;;;1.53;;
15132;SDS011;7667;51.232;17.110;2023-10-08T08:10:16;2.93;;;1.20;;
15132;SDS011;7667;51.232;17.110;2023-10-08T08:12:45;3.13;;;1.10;;
15132;SDS011;7667;51.232;17.110;2023-10-08T08:15:13;2.60;;;1.03;;
15132;SDS011;7667;51.232;17.110;2023-10-08T08:17:44;2.43;;;1.10;;
15132;SDS011;7667;51.232;17.110;2023-10-08T08:20:15;1.30;;;1.00;;
15132;SDS011;7667;51.232;17.110;2023-10-08T08:22:45;1.20;;;1.00;;
15132;SDS011;7667;51.232;17.110;2023-10-08T08:25:21;2.53;;;1.00;;
15132;SDS011;7667;51.232;17.110;2023-10-08T08:28:09;2.67;;;1.70;;
15132;SDS011;7667;51.232;17.110;2023-10-08T08:30:44;3.00;;;2.63;;
15132;SDS011;7667;51.232;17.110;2023-10-08T08:33:15;1.67;;;1.10;;
15132;SDS011;7667;51.232;17.110;2023-10-08T08:35:58;2.80;;;1.37;;
15132;SDS011;7667;51.232;17.110;2023-10-08T08:38:27;3.37;;;1.40;;
15132;SDS011;7667;51.232;17.110;2023-10-08T08:41:03;1.50;;;1.00;;
15132;SDS011;7667;51.232;17.110;2023-10-08T08:54:04;1.90;;;1.00;;
15132;SDS011;7667;51.232;17.110;2023-10-08T08:56:36;1.70;;;0.90;;
15132;SDS011;7667;51.232;17.110;2023-10-08T08:59:05;0.93;;;0.77;;
15132;SDS011;7667;51.232;17.110;2023-10-08T09:01:33;1.10;;;0.70;;
15132;SDS011;7667;51.232;17.110;2023-10-08T09:04:03;1.00;;;0.80;;
15132;SDS011;7667;51.232;17.110;2023-10-08T09:06:34;1.47;;;0.90;;
15132;SDS011;7667;51.232;17.110;2023-10-08T09:09:06;1.40;;;0.70;;
15132;SDS011;7667;51.232;17.110;2023-10-08T09:11:49;1.20;;;0.67;;
15132;SDS011;7667;51.232;17.110;2023-10-08T09:14:19;1.67;;;0.80;;
15132;SDS011;7667;51.232;17.110;2023-10-08T09:16:49;0.93;;;0.73;;
15132;SDS011;7667;51.232;17.110;2023-10-08T09:19:16;1.73;;;0.70;;
15132;SDS011;7667;51.232;17.110;2023-10-08T09:22:06;1.27;;;0.63;;
15132;SDS011;7667;51.232;17.110;2023-10-08T09:24:37;0.90;;;0.70;;
15132;SDS011;7667;51.232;17.110;2023-10-08T09:27:08;3.37;;;1.00;;
15132;SDS011;7667;51.232;17.110;2023-10-08T09:29:45;0.80;;;0.60;;
15132;SDS011;7667;51.232;17.110;2023-10-08T09:32:14;1.63;;;0.70;;
15132;SDS011;7667;51.232;17.110;2023-10-08T09:34:53;1.20;;;0.73;;
15132;SDS011;7667;51.232;17.110;2023-10-08T09:37:23;1.33;;;0.70;;
15132;SDS011;7667;51.232;17.110;2023-10-08T09:39:51;1.13;;;0.90;;
15132;SDS011;7667;51.232;17.110;2023-10-08T09:42:21;1.43;;;0.80;;
15132;SDS011;7667;51.232;17.110;2023-10-08T09:44:51;2.33;;;1.10;;
15132;SDS011;7667;51.232;17.110;2023-10-08T09:47:21;1.67;;;0.70;;
15132;SDS011;7667;51.232;17.110;2023-10-08T09:50:13;0.70;;;0.70;;
15132;SDS011;7667;51.232;17.110;2023-10-08T09:52:42;0.90;;;0.70;;
15132;SDS011;7667;51.232;17.110;2023-10-08T09:55:17;1.30;;;0.90;;
15132;SDS011;7667;51.232;17.110;2023-10-08T09:57:46;1.80;;;0.70;;
15132;SDS011;7667;51.232;17.110;2023-10-08T10:00:17;1.27;;;0.70;;
15132;SDS011;7667;51.232;17.110;2023-10-08T10:02:59;0.87;;;0.80;;
15132;SDS011;7667;51.232;17.110;2023-10-08T10:05:32;0.87;;;0.80;;
15132;SDS011;7667;51.232;17.110;2023-10-08T10:08:03;1.20;;;0.70;;
15132;SDS011;7667;51.232;17.110;2023-10-08T10:10:32;1.07;;;0.70;;
15132;SDS011;7667;51.232;17.110;2023-10-08T10:13:05;1.20;;;0.70;;
15132;SDS011;7667;51.232;17.110;2023-10-08T10:15:39;1.03;;;0.70;;
15132;SDS011;7667;51.232;17.110;2023-10-08T10:18:13;1.00;;;0.80;;
15132;SDS011;7667;51.232;17.110;2023-10-08T10:20:49;1.30;;;0.90;;
15132;SDS011;7667;51.232;17.110;2023-10-08T10:23:40;1.10;;;0.57;;
15132;SDS011;7667;51.232;17.110;2023-10-08T10:31:53;1.17;;;0.80;;
15132;SDS011;7667;51.232;17.110;2023-10-08T10:34:24;1.10;;;0.70;;
15132;SDS011;7667;51.232;17.110;2023-10-08T10:36:55;1.00;;;0.80;;
15132;SDS011;7667;51.232;17.110;2023-10-08T10:39:29;1.43;;;1.00;;
15132;SDS011;7667;51.232;17.110;2023-10-08T10:42:01;0.93;;;0.77;;
15132;SDS011;7667;51.232;17.110;2023-10-08T10:44:47;1.43;;;0.90;;
15132;SDS011;7667;51.232;17.110;2023-10-08T10:47:17;0.67;;;0.50;;
15132;SDS011;7667;51.232;17.110;2023-10-08T10:49:46;0.93;;;0.80;;
15132;SDS011;7667;51.232;17.110;2023-10-08T10:52:21;2.23;;;0.93;;
15132;SDS011;7667;51.232;17.110;2023-10-08T10:55:03;1.60;;;1.00;;
15132;SDS011;7667;51.232;17.110;2023-10-08T10:57:54;0.80;;;0.70;;
15132;SDS011;7667;51.232;17.110;2023-10-08T11:00:24;1.03;;;0.80;;
15132;SDS011;7667;51.232;17.110;2023-10-08T11:02:59;1.10;;;0.70;;
15132;SDS011;7667;51.232;17.110;2023-10-08T11:05:46;3.13;;;0.80;;
15132;SDS011;7667;51.232;17.110;2023-10-08T11:08:18;3.37;;;0.90;;
15132;SDS011;7667;51.232;17.110;2023-10-08T11:10:47;2.33;;;0.73;;
15132;SDS011;7667;51.232;17.110;2023-10-08T11:13:18;0.93;;;0.70;;
15132;SDS011;7667;51.232;17.110;2023-10-08T11:15:49;0.60;;;0.50;;
15132;SDS011;7667;51.232;17.110;2023-10-08T11:18:25;0.70;;;0.60;;
15132;SDS011;7667;51.232;17.110;2023-10-08T11:21:06;0.60;;;0.50;;
15132;SDS011;7667;51.232;17.110;2023-10-08T11:23:44;1.00;;;0.60;;
15132;SDS011;7667;51.232;17.110;2023-10-08T11:26:20;1.17;;;0.93;;
15132;SDS011;7667;51.232;17.110;2023-10-08T11:28:59;1.10;;;0.80;;
15132;SDS011;7667;51.232;17.110;2023-10-08T11:31:30;0.73;;;0.50;;
15132;SDS011;7667;51.232;17.110;2023-10-08T11:34:03;0.67;;;0.57;;
15132;SDS011;7667;51.232;17.110;2023-10-08T11:36:40;0.90;;;0.70;;
15132;SDS011;7667;51.232;17.110;2023-10-08T11:39:20;0.90;;;0.60;;
15132;SDS011;7667;51.232;17.110;2023-10-08T11:41:54;1.20;;;0.53;;
15132;SDS011;7667;51.232;17.110;2023-10-08T11:44:52;1.50;;;0.70;;
15132;SDS011;7667;51.232;17.110;2023-10-08T11:47:21;1.10;;;0.77;;
15132;SDS011;7667;51.232;17.110;2023-10-08T11:49:49;1.30;;;0.80;;
15132;SDS011;7667;51.232;17.110;2023-10-08T11:52:37;0.97;;;0.80;;
15132;SDS011;7667;51.232;17.110;2023-10-08T11:55:08;1.60;;;1.00;;
15132;SDS011;7667;51.232;17.110;2023-10-08T11:57:37;0.97;;;0.73;;
15132;SDS011;7667;51.232;17.110;2023-10-08T12:00:12;1.00;;;0.73;;
15132;SDS011;7667;51.232;17.110;2023-10-08T12:02:58;1.03;;;0.80;;
15132;SDS011;7667;51.232;17.110;2023-10-08T12:05:29;1.50;;;1.20;;
15132;SDS011;7667;51.232;17.110;2023-10-08T12:07:59;2.20;;;0.97;;
15132;SDS011;7667;51.232;17.110;2023-10-08T12:10:27;1.37;;;0.90;;
15132;SDS011;7667;51.232;17.110;2023-10-08T12:12:58;0.87;;;0.70;;
15132;SDS011;7667;51.232;17.110;2023-10-08T12:15:26;1.17;;;0.60;;
15132;SDS011;7667;51.232;17.110;2023-10-08T12:18:01;1.33;;;0.70;;
15132;SDS011;7667;51.232;17.110;2023-10-08T12:20:47;1.50;;;0.70;;
15132;SDS011;7667;51.232;17.110;2023-10-08T12:23:15;0.80;;;0.60;;
15132;SDS011;7667;51.232;17.110;2023-10-08T12:25:52;0.80;;;0.70;;
15132;SDS011;7667;51.232;17.110;2023-10-08T12:28:23;0.60;;;0.53;;
15132;SDS011;7667;51.232;17.110;2023-10-08T12:30:51;0.90;;;0.70;;
15132;SDS011;7667;51.232;17.110;2023-10-08T12:33:19;1.20;;;0.60;;
15132;SDS011;7667;51.232;17.110;2023-10-08T12:35:48;1.33;;;0.70;;
15132;SDS011;7667;51.232;17.110;2023-10-08T12:38:20;0.60;;;0.60;;
15132;SDS011;7667;51.232;17.110;2023-10-08T12:40:49;1.33;;;0.80;;
15132;SDS011;7667;51.232;17.110;2023-10-08T12:43:20;2.03;;;0.70;;
15132;SDS011;7667;51.232;17.110;2023-10-08T12:45:49;0.80;;;0.63;;
15132;SDS011;7667;51.232;17.110;2023-10-08T12:48:25;0.50;;;0.50;;
15132;SDS011;7667;51.232;17.110;2023-10-08T12:50:54;1.03;;;0.70;;
15132;SDS011;7667;51.232;17.110;2023-10-08T12:53:27;0.77;;;0.60;;
15132;SDS011;7667;51.232;17.110;2023-10-08T12:56:06;0.90;;;0.60;;
15132;SDS011;7667;51.232;17.110;2023-10-08T12:58:42;0.93;;;0.70;;
15132;SDS011;7667;51.232;17.110;2023-10-08T13:01:15;1.87;;;0.70;;
15132;SDS011;7667;51.232;17.110;2023-10-08T13:03:46;1.10;;;0.80;;
15132;SDS011;7667;51.232;17.110;2023-10-08T13:06:15;0.60;;;0.50;;
15132;SDS011;7667;51.232;17.110;2023-10-08T13:08:49;1.40;;;0.70;;
15132;SDS011;7667;51.232;17.110;2023-10-08T13:11:20;1.10;;;0.80;;
15132;SDS011;7667;51.232;17.110;2023-10-08T13:13:49;0.93;;;0.80;;
15132;SDS011;7667;51.232;17.110;2023-10-08T13:16:18;1.00;;;0.77;;
15132;SDS011;7667;51.232;17.110;2023-10-08T13:18:50;2.43;;;0.80;;
15132;SDS011;7667;51.232;17.110;2023-10-08T13:21:18;1.90;;;0.90;;
15132;SDS011;7667;51.232;17.110;2023-10-08T13:23:46;0.60;;;0.60;;
15132;SDS011;7667;51.232;17.110;2023-10-08T13:26:15;1.67;;;0.77;;
15132;SDS011;7667;51.232;17.110;2023-10-08T13:28:44;3.50;;;2.87;;
15132;SDS011;7667;51.232;17.110;2023-10-08T13:31:11;1.27;;;1.00;;
15132;SDS011;7667;51.232;17.110;2023-10-08T13:33:40;1.20;;;0.70;;
15132;SDS011;7667;51.232;17.110;2023-10-08T13:36:11;0.70;;;0.60;;
15132;SDS011;7667;51.232;17.110;2023-10-08T13:38:45;0.50;;;0.50;;
15132;SDS011;7667;51.232;17.110;2023-10-08T13:41:14;0.80;;;0.73;;
15132;SDS011;7667;51.232;17.110;2023-10-08T13:43:42;1.47;;;0.70;;
15132;SDS011;7667;51.232;17.110;2023-10-08T13:46:14;1.50;;;0.90;;
15132;SDS011;7667;51.232;17.110;2023-10-08T13:48:49;0.80;;;0.60;;
15132;SDS011;7667;51.232;17.110;2023-10-08T13:51:18;0.70;;;0.67;;
15132;SDS011;7667;51.232;17.110;2023-10-08T13:53:54;1.27;;;0.70;;
15132;SDS011;7667;51.232;17.110;2023-10-08T13:56:27;0.93;;;0.70;;
15132;SDS011;7667;51.232;17.110;2023-10-08T13:58:58;1.07;;;0.60;;
15132;SDS011;7667;51.232;17.110;2023-10-08T14:01:40;1.30;;;0.80;;
15132;SDS011;7667;51.232;17.110;2023-10-08T14:04:19;1.13;;;0.67;;
15132;SDS011;7667;51.232;17.110;2023-10-08T14:06:50;0.90;;;0.60;;
15132;SDS011;7667;51.232;17.110;2023-10-08T14:09:22;1.00;;;0.77;;
15132;SDS011;7667;51.232;17.110;2023-10-08T14:11:59;1.93;;;0.90;;
15132;SDS011;7667;51.232;17.110;2023-10-08T14:14:28;1.23;;;0.87;;
15132;SDS011;7667;51.232;17.110;2023-10-08T14:17:01;1.07;;;0.70;;
15132;SDS011;7667;51.232;17.110;2023-10-08T14:19:35;1.07;;;0.70;;
15132;SDS011;7667;51.232;17.110;2023-10-08T14:22:10;1.80;;;0.73;;
15132;SDS011;7667;51.232;17.110;2023-10-08T14:24:41;1.60;;;0.73;;
15132;SDS011;7667;51.232;17.110;2023-10-08T14:27:13;0.67;;;0.67;;
15132;SDS011;7667;51.232;17.110;2023-10-08T14:29:45;0.90;;;0.70;;
15132;SDS011;7667;51.232;17.110;2023-10-08T14:32:18;1.70;;;0.67;;
15132;SDS011;7667;51.232;17.110;2023-10-08T14:34:47;0.90;;;0.70;;
15132;SDS011;7667;51.232;17.110;2023-10-08T14:37:14;1.10;;;0.80;;
15132;SDS011;7667;51.232;17.110;2023-10-08T14:40:01;2.00;;;0.80;;
15132;SDS011;7667;51.232;17.110;2023-10-08T14:42:48;1.37;;;0.80;;
15132;SDS011;7667;51.232;17.110;2023-10-08T14:45:26;1.17;;;0.87;;
15132;SDS011;7667;51.232;17.110;2023-10-08T14:47:58;1.37;;;1.00;;
15132;SDS011;7667;51.232;17.110;2023-10-08T14:50:26;2.07;;;1.37;;
15132;SDS011;7667;51.232;17.110;2023-10-08T14:52:58;1.27;;;1.03;;
15132;SDS011;7667;51.232;17.110;2023-10-08T14:55:28;2.53;;;1.50;;
15132;SDS011;7667;51.232;17.110;2023-10-08T14:57:56;2.83;;;2.10;;
15132;SDS011;7667;51.232;17.110;2023-10-08T15:00:24;2.43;;;1.80;;
15132;SDS011;7667;51.232;17.110;2023-10-08T15:02:53;1.50;;;1.10;;
15132;SDS011;7667;51.232;17.110;2023-10-08T15:05:22;1.10;;;0.87;;
15132;SDS011;7667;51.232;17.110;2023-10-08T15:07:50;1.50;;;0.90;;
15132;SDS011;7667;51.232;17.110;2023-10-08T15:10:18;1.77;;;0.97;;
15132;SDS011;7667;51.232;17.110;2023-10-08T15:12:50;1.23;;;0.80;;
15132;SDS011;7667;51.232;17.110;2023-10-08T15:15:19;4.63;;;2.43;;
15132;SDS011;7667;51.232;17.110;2023-10-08T15:17:50;2.20;;;1.30;;
15132;SDS011;7667;51.232;17.110;2023-10-08T15:20:18;8.67;;;7.77;;
15132;SDS011;7667;51.232;17.110;2023-10-08T15:22:47;5.63;;;5.13;;
15132;SDS011;7667;51.232;17.110;2023-10-08T15:25:17;3.30;;;2.70;;
15132;SDS011;7667;51.232;17.110;2023-10-08T15:27:45;1.27;;;1.10;;
15132;SDS011;7667;51.232;17.110;2023-10-08T15:30:18;1.30;;;0.80;;
15132;SDS011;7667;51.232;17.110;2023-10-08T15:32:47;1.17;;;0.80;;
15132;SDS011;7667;51.232;17.110;2023-10-08T15:35:17;1.97;;;1.50;;
15132;SDS011;7667;51.232;17.110;2023-10-08T15:37:51;4.90;;;3.50;;
15132;SDS011;7667;51.232;17.110;2023-10-08T15:40:20;3.20;;;2.83;;
15132;SDS011;7667;51.232;17.110;2023-10-08T15:42:52;1.60;;;1.20;;
15132;SDS011;7667;51.232;17.110;2023-10-08T15:45:23;3.30;;;1.30;;
15132;SDS011;7667;51.232;17.110;2023-10-08T15:47:52;2.50;;;1.30;;